Pagrindinis puslapis
METAR-TAF:

METAR-TAF

Oro uostai :

Buriram, Tailandas

platuma: 15-13-46N, ilguma: 103-15-04E, Aukštis: 180 m

Dabartinis oras

Ataskaita buvo paskelbta 58 minutes, ne 01:00 UTC
Vėjas 7 kt iš Šiaurės/Šiaurės Rytų
Temperatūra 22°C
Drėgmė 78%
Slėgis 1017 hPa
Matomumas: 9000 m

METAR: VTUO 290100Z 03007KT 9000 NSC 22/18 Q1017 NOSIG

Laikas: 08:58 (01:58 UTC)

Prognozė

Ataskaita buvo paskelbta 2 valandos ir 58 minutes, ne 23:00 UTC
Prognozė galioja nuo 29 metu 00 UTC su 29 metu 24 UTC
Vėjas 10 kt iš Šiaurės Rytų
Matomumas 10 km arba daugiau
Mažai debesys ne aukštis 4000 ft

TAF: VTUO 282300Z 2900/2924 04010KT 9999 FEW040

Orai ataskaitas ir orų prognozės (METAR, TAF).

turimą stotys yra geltonos ir raudonos taškus žemėlapyje.

Perkelti pele per norėdami pamatyti stoties vardą.

Tada spustelėkite, norėdami matyti oro stebėjimo ir prognozės.

Norėdami pakeisti žemėlapį: spustelėkite ant žalios mygtukų su juodo kryžiaus žemyn,; žalią mygtuką su brūkšneliu, jei norite nutolinti; arba žalių rodyklių gretimoms žemėlapius.


METAR-TAF: